Time;durP1;ratioP1;P1;durP2;ratioP2;P2;SDS_P1;SDS_P2;PMS_P1;PMS_P2;Temp;Humidity;BMP_temperature;BMP_pressure;BME280_temperature;BME280_humidity;BME280_pressure;Samples;Min_cycle;Max_cycle;Signal;HPM_P1;HPM_P2
2023/06/03 00:01:07;;;;;;;76.63;72.82;;;;;;;22.80;38.01;101982.53;5004830;28;20179;-73
2023/06/03 00:03:32;;;;;;;76.30;72.45;;;;;;;22.78;37.54;101982.00;5011980;28;20112;-73
2023/06/03 00:05:59;;;;;;;78.70;74.50;;;;;;;22.75;37.79;101975.16;5008822;28;20165;-74
2023/06/03 00:08:24;;;;;;;77.18;73.47;;;;;;;22.74;37.85;101981.78;5005242;28;20066;-74
2023/06/03 00:10:50;;;;;;;75.43;71.47;;;;;;;22.70;37.63;101980.72;5002973;28;20487;-76
2023/06/03 00:13:15;;;;;;;71.35;67.95;;;;;;;22.68;37.72;101977.47;5025618;28;20501;-74
2023/06/03 00:15:41;;;;;;;75.55;71.85;;;;;;;22.66;37.70;101982.44;5015818;28;20393;-74
2023/06/03 00:18:07;;;;;;;75.88;71.85;;;;;;;22.63;37.90;101983.84;5006321;28;20035;-76
2023/06/03 00:20:35;;;;;;;73.72;69.93;;;;;;;22.61;38.14;101988.81;5012555;28;20034;-78
2023/06/03 00:23:04;;;;;;;74.40;70.70;;;;;;;22.58;37.81;101983.91;5019868;28;20044;-74
2023/06/03 00:25:31;;;;;;;75.32;70.68;;;;;;;22.55;38.50;101978.16;4992085;28;20041;-74
2023/06/03 00:27:56;;;;;;;74.55;70.65;;;;;;;22.53;38.32;101980.38;5009327;28;20084;-74
2023/06/03 00:30:22;;;;;;;74.07;70.25;;;;;;;22.50;38.40;101987.28;5017939;28;20184;-73
2023/06/03 00:32:47;;;;;;;76.43;72.43;;;;;;;22.47;37.83;101985.13;5007542;28;20045;-75
2023/06/03 00:35:13;;;;;;;74.45;70.75;;;;;;;22.44;38.52;101991.22;5013344;28;20049;-74
2023/06/03 00:37:39;;;;;;;73.75;69.80;;;;;;;22.42;38.38;101986.00;5003210;28;20033;-74
2023/06/03 00:40:05;;;;;;;71.78;67.95;;;;;;;22.39;38.53;101989.34;5023471;28;20061;-74
2023/06/03 00:42:30;;;;;;;72.07;68.57;;;;;;;22.36;38.26;101984.44;5008739;28;20034;-74
2023/06/03 00:44:56;;;;;;;71.93;68.13;;;;;;;22.34;38.56;101988.59;5006998;28;20121;-75
2023/06/03 00:47:21;;;;;;;73.45;69.60;;;;;;;22.32;38.05;101988.88;4995548;28;20049;-73
2023/06/03 00:49:47;;;;;;;75.88;72.18;;;;;;;22.30;38.34;101990.28;5025356;28;20745;-74
2023/06/03 00:52:15;;;;;;;71.38;67.45;;;;;;;22.27;38.16;101991.69;5012495;28;20030;-75
2023/06/03 00:54:40;;;;;;;73.55;69.78;;;;;;;22.23;38.50;101983.19;5014551;28;20068;-75
2023/06/03 00:57:07;;;;;;;71.47;67.65;;;;;;;22.21;38.32;101987.34;5004576;28;20038;-74
2023/06/03 00:59:33;;;;;;;74.88;70.45;;;;;;;22.18;38.58;101982.41;5005888;28;20486;-74
2023/06/03 01:01:58;;;;;;;72.72;69.07;;;;;;;22.16;38.64;101977.19;5009472;28;20125;-74
2023/06/03 01:04:25;;;;;;;71.75;67.95;;;;;;;22.13;38.51;101980.53;5003784;28;20363;-74
2023/06/03 01:07:14;;;;;;;72.45;68.60;;;;;;;22.10;38.40;101974.75;5007648;28;20380;-74
2023/06/03 01:09:52;;;;;;;72.85;68.85;;;;;;;22.06;38.35;101974.53;5002017;28;20088;-74
2023/06/03 01:12:29;;;;;;;69.32;65.40;;;;;;;22.03;38.47;101977.88;5007897;28;20030;-74
2023/06/03 01:14:59;;;;;;;69.03;65.50;;;;;;;22.01;38.64;101974.59;5020629;28;20050;-76
2023/06/03 01:17:28;;;;;;;71.57;67.97;;;;;;;21.98;38.45;101984.25;5011634;28;20504;-74
2023/06/03 01:19:56;;;;;;;72.05;68.00;;;;;;;21.95;38.68;101984.81;5017319;28;20041;-75
2023/06/03 01:22:26;;;;;;;69.72;66.43;;;;;;;21.94;38.88;101987.84;5014716;28;20053;-74
2023/06/03 01:25:08;;;;;;;71.60;67.63;;;;;;;21.91;38.95;101977.44;5012474;28;20469;-77
2023/06/03 01:27:34;;;;;;;70.03;66.22;;;;;;;21.88;38.46;101983.53;5030395;28;20030;-75
2023/06/03 01:30:00;;;;;;;74.13;70.35;;;;;;;21.85;38.60;101973.06;5019077;28;20068;-74
2023/06/03 01:32:27;;;;;;;69.13;65.63;;;;;;;21.82;38.69;101979.97;5010620;28;20456;-74
2023/06/03 01:34:52;;;;;;;72.85;68.32;;;;;;;21.79;38.86;101970.38;5007893;28;20433;-74
2023/06/03 01:37:19;;;;;;;68.75;64.93;;;;;;;21.76;38.90;101973.72;5008535;28;20122;-74
2023/06/03 01:39:44;;;;;;;69.50;66.00;;;;;;;21.74;38.72;101988.84;5002878;28;20080;-74
2023/06/03 01:42:11;;;;;;;71.55;67.35;;;;;;;21.72;38.63;101977.31;5032440;28;20061;-75
2023/06/03 01:44:37;;;;;;;70.07;66.32;;;;;;;21.69;38.54;101972.41;5010305;28;20470;-74
2023/06/03 01:47:04;;;;;;;69.20;65.53;;;;;;;21.67;38.96;101980.94;5022404;28;20047;-74
2023/06/03 01:49:31;;;;;;;68.45;65.10;;;;;;;21.64;38.95;101969.69;4997968;28;20030;-74
2023/06/03 01:52:00;;;;;;;72.97;69.07;;;;;;;21.61;38.92;101973.84;5006811;28;20091;-74
2023/06/03 01:54:27;;;;;;;66.78;63.10;;;;;;;21.59;38.91;101971.34;5013462;28;20414;-74
2023/06/03 01:56:53;;;;;;;71.55;67.75;;;;;;;21.57;39.16;101976.34;5012469;28;20030;-74
2023/06/03 01:59:23;;;;;;;70.70;67.30;;;;;;;21.55;38.72;101977.75;5009901;28;20049;-73
2023/06/03 02:01:51;;;;;;;72.38;68.45;;;;;;;21.51;38.82;101976.66;5005624;28;20080;-73
2023/06/03 02:04:16;;;;;;;68.80;65.32;;;;;;;21.49;38.85;101971.44;5026926;28;20052;-74
2023/06/03 02:06:58;;;;;;;70.40;66.85;;;;;;;21.47;38.88;101964.59;5008363;28;20475;-75
2023/06/03 02:09:24;;;;;;;70.13;65.45;;;;;;;21.44;39.23;101970.66;5005429;28;20033;-73
2023/06/03 02:11:51;;;;;;;71.03;67.30;;;;;;;21.41;38.86;101974.81;5013384;28;20069;-73
2023/06/03 02:14:16;;;;;;;68.78;65.32;;;;;;;21.38;39.09;101975.34;5003916;28;20035;-73
2023/06/03 02:16:42;;;;;;;67.68;64.28;;;;;;;21.36;39.22;101978.38;5003800;28;20042;-73
2023/06/03 02:19:21;;;;;;;67.80;64.15;;;;;;;21.35;38.77;101964.94;5007256;28;20041;-74
2023/06/03 02:21:47;;;;;;;67.70;64.28;;;;;;;21.31;39.32;101970.16;5013363;28;20035;-74
2023/06/03 02:24:14;;;;;;;70.00;66.20;;;;;;;21.29;38.80;101972.41;5010903;28;20129;-74
2023/06/03 02:26:52;;;;;;;71.50;67.80;;;;;;;21.26;39.01;101967.47;5009583;28;20034;-74
2023/06/03 02:29:25;;;;;;;71.82;68.22;;;;;;;21.24;39.21;101975.16;5007393;28;20088;-74
2023/06/03 02:31:51;;;;;;;69.50;65.90;;;;;;;21.22;38.97;101968.31;5006092;28;20439;-73
2023/06/03 02:34:17;;;;;;;67.10;63.15;;;;;;;21.20;39.14;101973.28;5001918;28;20042;-75
2023/06/03 02:36:43;;;;;;;67.47;63.75;;;;;;;21.16;38.77;101976.59;5001358;28;20045;-74
2023/06/03 02:39:09;;;;;;;66.70;63.45;;;;;;;21.14;39.33;101972.47;5018219;28;20121;-75
2023/06/03 02:41:36;;;;;;;68.10;64.15;;;;;;;21.12;38.95;101977.47;5000727;28;20130;-74
2023/06/03 02:44:02;;;;;;;68.57;65.18;;;;;;;21.10;38.96;101983.22;5005022;28;20026;-75
2023/06/03 02:46:27;;;;;;;65.30;61.90;;;;;;;21.07;39.20;101977.50;5016345;28;20033;-75
2023/06/03 02:48:53;;;;;;;65.38;61.83;;;;;;;21.05;39.02;101972.28;4996323;28;20046;-74
2023/06/03 02:51:19;;;;;;;68.22;64.60;;;;;;;21.03;39.10;101985.47;5013041;28;20116;-75
2023/06/03 02:53:44;;;;;;;67.25;63.35;;;;;;;21.00;38.80;101980.53;5005958;28;20041;-75
2023/06/03 02:56:09;;;;;;;66.63;63.13;;;;;;;20.98;39.19;101979.19;4997799;28;20041;-74
2023/06/03 02:58:35;;;;;;;65.65;62.33;;;;;;;20.94;39.35;101974.25;5003139;28;20088;-74
2023/06/03 03:01:00;;;;;;;66.47;63.08;;;;;;;20.92;39.01;101976.47;5010649;28;20065;-75
2023/06/03 03:03:26;;;;;;;67.90;64.60;;;;;;;20.90;38.98;101978.66;5001642;28;20069;-74
2023/06/03 03:05:54;;;;;;;68.20;64.65;;;;;;;20.87;39.04;101971.00;5005787;28;20237;-75
2023/06/03 03:08:20;;;;;;;;;;;;;;;20.86;39.26;101976.75;5009186;28;20045;-74
2023/06/03 03:10:45;;;;;;;64.38;60.60;;;;;;;20.81;39.24;101980.34;5020591;28;20286;-74
2023/06/03 03:13:10;;;;;;;65.07;61.40;;;;;;;20.78;39.37;101969.13;5007668;28;20030;-75
2023/06/03 03:15:36;;;;;;;67.38;63.88;;;;;;;20.77;39.31;101975.72;5002889;28;20176;-75
2023/06/03 03:18:01;;;;;;;65.55;61.92;;;;;;;20.73;39.20;101981.75;5010611;28;20029;-74
2023/06/03 03:20:29;;;;;;;65.30;61.78;;;;;;;20.71;39.25;101983.97;4998804;28;20040;-74
2023/06/03 03:22:54;;;;;;;65.00;61.58;;;;;;;20.70;39.27;101987.00;5002676;28;20062;-74
2023/06/03 03:25:21;;;;;;;65.47;61.88;;;;;;;20.67;39.09;101993.88;4984928;28;20462;-74
2023/06/03 03:27:46;;;;;;;67.07;63.50;;;;;;;20.64;39.10;101988.94;5013732;28;20046;-74
2023/06/03 03:30:12;;;;;;;63.90;60.70;;;;;;;20.62;39.04;101984.84;5006446;28;20048;-74
2023/06/03 03:32:37;;;;;;;62.60;59.50;;;;;;;20.60;38.90;101985.09;5009428;28;20039;-74
2023/06/03 03:35:13;;;;;;;64.93;61.40;;;;;;;20.59;39.51;101988.13;5005247;28;20046;-74
2023/06/03 03:37:39;;;;;;;64.63;61.33;;;;;;;20.56;39.12;101992.25;4999461;28;20034;-75
2023/06/03 03:40:20;;;;;;;65.75;62.38;;;;;;;20.53;39.13;101996.34;5008590;28;20064;-75
2023/06/03 03:42:50;;;;;;;66.28;62.65;;;;;;;20.49;39.39;101989.78;5009339;28;20551;-74
2023/06/03 03:45:17;;;;;;;63.35;60.20;;;;;;;20.47;39.00;101988.41;5004752;28;20034;-74
2023/06/03 03:47:43;;;;;;;63.63;60.42;;;;;;;20.46;39.25;101984.00;5011374;28;20038;-75
2023/06/03 03:50:32;;;;;;;64.32;61.13;;;;;;;20.44;39.09;101986.25;5022694;28;20050;-74
2023/06/03 03:53:01;;;;;;;64.63;61.40;;;;;;;20.41;39.34;101992.25;5009719;28;20111;-74
2023/06/03 03:55:27;;;;;;;62.90;59.72;;;;;;;20.38;39.17;101996.38;5004534;28;20042;-74
2023/06/03 03:57:52;;;;;;;65.10;61.90;;;;;;;20.37;39.31;101996.69;5004689;28;20041;-74
2023/06/03 04:00:19;;;;;;;64.57;60.90;;;;;;;20.35;39.32;101990.66;5004864;28;20034;-75
2023/06/03 04:02:46;;;;;;;60.80;56.90;;;;;;;20.32;39.31;101992.84;5000458;28;20048;-74
2023/06/03 04:05:15;;;;;;;61.70;58.63;;;;;;;20.29;39.42;101996.16;5003502;28;20038;-74
2023/06/03 04:07:42;;;;;;;59.67;56.28;;;;;;;20.27;39.28;101995.59;5005511;28;20044;-74
2023/06/03 04:10:11;;;;;;;60.88;57.05;;;;;;;20.24;39.24;101990.66;5011709;28;20041;-74
2023/06/03 04:12:36;;;;;;;60.30;56.88;;;;;;;20.23;39.52;101988.19;5017853;28;20038;-74
2023/06/03 04:15:03;;;;;;;60.90;57.53;;;;;;;20.21;39.38;101996.72;4999778;28;20410;-73
2023/06/03 04:17:30;;;;;;;62.00;58.25;;;;;;;20.19;39.38;101992.59;4984401;28;20100;-73
2023/06/03 04:19:56;;;;;;;60.20;56.70;;;;;;;20.17;39.41;101992.06;5021785;28;20394;-77
2023/06/03 04:22:25;;;;;;;60.75;57.65;;;;;;;20.15;39.17;101999.75;5002283;28;20041;-74
2023/06/03 04:24:59;;;;;;;61.78;58.50;;;;;;;20.12;39.57;101995.63;5009638;28;20033;-74
2023/06/03 04:27:25;;;;;;;59.63;56.63;;;;;;;20.09;39.54;101999.75;5006578;28;20387;-74
2023/06/03 04:29:51;;;;;;;59.13;56.10;;;;;;;20.08;39.16;101995.38;5002250;28;20493;-74
2023/06/03 04:32:16;;;;;;;59.22;56.03;;;;;;;20.07;39.30;102001.13;5021768;28;20235;-74
2023/06/03 04:34:55;;;;;;;59.97;56.03;;;;;;;20.04;39.79;101990.72;5007585;28;20080;-74
2023/06/03 04:37:21;;;;;;;;;;;;;;;20.02;39.32;101999.19;5010114;28;20470;-74
2023/06/03 04:39:48;;;;;;;57.30;53.78;;;;;;;19.98;39.14;102006.34;5002166;28;20023;-75
2023/06/03 04:42:13;;;;;;;63.15;58.97;;;;;;;19.96;39.50;102010.44;5000485;28;20028;-74
2023/06/03 04:44:39;;;;;;;59.13;55.63;;;;;;;19.94;39.65;102004.44;5004885;28;20386;-73
2023/06/03 04:47:12;;;;;;;61.17;57.88;;;;;;;19.92;39.72;102004.69;5002037;28;20041;-74
2023/06/03 04:49:38;;;;;;;58.53;55.50;;;;;;;19.91;39.66;102002.22;5022476;28;20411;-74
2023/06/03 04:52:05;;;;;;;61.72;58.42;;;;;;;19.89;39.51;102003.31;5001161;28;20382;-74
2023/06/03 04:54:30;;;;;;;59.95;56.17;;;;;;;19.88;39.68;102006.34;5002978;28;20035;-74
2023/06/03 04:56:56;;;;;;;55.55;52.55;;;;;;;19.85;39.76;102004.97;5005698;28;20093;-74
2023/06/03 04:59:21;;;;;;;57.80;53.70;;;;;;;19.84;39.87;101997.03;5007424;28;20076;-74
2023/06/03 05:01:48;;;;;;;57.08;54.08;;;;;;;19.83;39.83;102007.19;5018356;28;20038;-75
2023/06/03 05:04:19;;;;;;;57.30;54.10;;;;;;;19.81;39.49;102009.38;5011063;28;20112;-74
2023/06/03 05:06:45;;;;;;;56.50;53.63;;;;;;;19.80;39.47;102004.97;5009047;28;20080;-74
2023/06/03 05:09:10;;;;;;;59.30;56.08;;;;;;;19.79;39.79;102011.56;5013618;28;20045;-74
2023/06/03 05:11:36;;;;;;;56.28;53.08;;;;;;;19.79;39.60;102008.81;5012557;28;20145;-74
2023/06/03 05:14:01;;;;;;;55.15;52.30;;;;;;;19.79;39.38;102002.50;5012033;28;20093;-76
2023/06/03 05:16:27;;;;;;;56.78;53.88;;;;;;;19.76;39.73;102006.63;4994261;28;20470;-75
2023/06/03 05:18:52;;;;;;;57.80;54.63;;;;;;;19.76;39.48;102009.38;5026565;28;20042;-75
2023/06/03 05:21:19;;;;;;;60.05;56.72;;;;;;;19.74;39.35;102006.06;5011376;28;20128;-73
2023/06/03 05:23:45;;;;;;;56.58;53.10;;;;;;;19.74;39.50;102016.22;5011607;28;20512;-72
2023/06/03 05:26:10;;;;;;;57.20;54.20;;;;;;;19.74;39.82;102019.78;5025877;28;20391;-73
2023/06/03 05:28:36;;;;;;;58.58;54.08;;;;;;;19.73;39.84;102017.28;5005420;28;20038;-73
2023/06/03 05:31:01;;;;;;;57.92;54.53;;;;;;;19.72;39.92;102015.66;5004883;28;20053;-78
2023/06/03 05:33:30;;;;;;;56.50;53.50;;;;;;;19.72;39.89;102019.22;5009597;28;20046;-74
2023/06/03 05:35:56;;;;;;;56.60;53.40;;;;;;;19.73;39.60;102020.03;5002823;28;20034;-75
2023/06/03 05:38:22;;;;;;;58.30;55.33;;;;;;;19.73;39.94;102023.63;5005342;28;20466;-74
2023/06/03 05:40:49;;;;;;;57.40;54.40;;;;;;;19.74;39.63;102013.47;5005474;28;20038;-73
2023/06/03 05:43:15;;;;;;;60.35;57.20;;;;;;;19.74;39.89;102014.28;5006892;28;20041;-74
2023/06/03 05:45:41;;;;;;;57.78;54.58;;;;;;;19.74;39.65;102014.28;5000888;28;20493;-74
2023/06/03 05:48:06;;;;;;;56.95;53.92;;;;;;;19.73;39.69;102007.19;5002351;28;20026;-74
2023/06/03 05:50:36;;;;;;;58.28;55.03;;;;;;;19.74;39.81;102011.56;5003499;28;20089;-73
2023/06/03 05:53:02;;;;;;;56.10;53.22;;;;;;;19.74;39.60;102016.22;5009797;28;20042;-74
2023/06/03 05:55:28;;;;;;;58.03;54.88;;;;;;;19.73;39.28;102015.41;4999989;28;20070;-74
2023/06/03 05:57:53;;;;;;;57.53;54.25;;;;;;;19.74;39.66;102013.47;5004763;28;20073;-74
2023/06/03 06:00:18;;;;;;;58.25;55.25;;;;;;;19.74;39.60;102008.81;5001692;28;20037;-74
2023/06/03 06:02:44;;;;;;;59.35;55.70;;;;;;;19.75;39.65;102023.34;5001203;28;20039;-73
2023/06/03 06:05:10;;;;;;;60.05;57.03;;;;;;;19.74;39.42;102019.78;5011069;28;20129;-74
2023/06/03 06:07:35;;;;;;;59.30;56.00;;;;;;;19.74;39.75;102025.25;5022323;28;20117;-74
2023/06/03 06:10:00;;;;;;;57.70;54.90;;;;;;;19.75;39.39;102015.09;5005977;28;20125;-74
2023/06/03 06:12:26;;;;;;;59.42;56.35;;;;;;;19.77;39.87;102023.88;5019588;28;20080;-73
2023/06/03 06:14:51;;;;;;;56.42;53.53;;;;;;;19.77;39.51;102021.97;5009590;28;20042;-74
2023/06/03 06:17:17;;;;;;;57.30;54.40;;;;;;;19.78;39.53;102026.38;5002386;28;20125;-73
2023/06/03 06:19:42;;;;;;;56.53;53.42;;;;;;;19.80;39.69;102020.59;5005348;28;20046;-73
2023/06/03 06:22:08;;;;;;;56.13;53.38;;;;;;;19.79;39.47;102022.53;5007673;28;20034;-74
2023/06/03 06:24:33;;;;;;;58.67;55.80;;;;;;;19.80;39.34;102026.06;5003928;28;20045;-74
2023/06/03 06:26:59;;;;;;;57.47;54.42;;;;;;;19.81;39.32;102027.75;5006334;28;20072;-74
2023/06/03 06:29:26;;;;;;;58.85;55.90;;;;;;;19.81;39.79;102028.56;4994947;28;20150;-74
2023/06/03 06:31:52;;;;;;;58.72;55.55;;;;;;;19.83;39.23;102022.78;5003211;28;20041;-74
2023/06/03 06:34:17;;;;;;;58.05;55.03;;;;;;;19.83;39.15;102031.84;5001910;28;20058;-74
2023/06/03 06:36:52;;;;;;;59.50;55.75;;;;;;;19.84;39.37;102018.97;5001439;28;20153;-74
2023/06/03 06:39:20;;;;;;;59.75;56.75;;;;;;;19.88;39.07;102028.25;5020283;28;20037;-75
2023/06/03 06:41:46;;;;;;;55.13;51.70;;;;;;;19.89;39.12;102029.94;5006059;28;20038;-73
2023/06/03 06:44:12;;;;;;;54.85;52.10;;;;;;;19.89;39.45;102022.53;5011769;28;20060;-73
2023/06/03 06:46:37;;;;;;;54.78;52.08;;;;;;;19.93;39.45;102031.00;5013879;28;20100;-73
2023/06/03 06:49:03;;;;;;;58.40;55.45;;;;;;;19.94;39.30;102029.13;5005173;28;20109;-73
2023/06/03 06:51:29;;;;;;;57.60;54.60;;;;;;;19.98;39.49;102024.69;5026727;28;20374;-74
2023/06/03 06:53:56;;;;;;;57.75;54.35;;;;;;;20.01;39.02;102024.19;5011620;28;20041;-73
2023/06/03 06:56:22;;;;;;;56.08;53.28;;;;;;;20.04;39.54;102026.38;5012041;28;20052;-73
2023/06/03 06:58:47;;;;;;;57.63;54.63;;;;;;;20.06;39.07;102022.25;5001506;28;20038;-72
2023/06/03 07:01:12;;;;;;;57.47;54.28;;;;;;;20.10;39.16;102034.28;5004885;28;20066;-72
2023/06/03 07:03:38;;;;;;;59.15;56.20;;;;;;;20.14;39.33;102031.84;5008768;28;20116;-73
2023/06/03 07:06:04;;;;;;;57.20;53.92;;;;;;;20.17;39.33;102024.97;5009617;28;20052;-74
2023/06/03 07:08:30;;;;;;;61.85;58.65;;;;;;;20.22;39.44;102030.47;5005238;28;20030;-73
2023/06/03 07:10:59;;;;;;;57.53;54.63;;;;;;;20.25;39.47;102029.91;5010164;28;20037;-73
2023/06/03 07:13:25;;;;;;;58.15;55.13;;;;;;;20.30;39.47;102035.38;5010276;28;20041;-73
2023/06/03 07:15:50;;;;;;;56.80;54.00;;;;;;;20.35;39.48;102032.63;5005546;28;20038;-73
2023/06/03 07:18:16;;;;;;;60.80;57.33;;;;;;;20.38;39.54;102025.75;5010989;28;20125;-72
2023/06/03 07:20:43;;;;;;;63.70;60.35;;;;;;;20.43;38.94;102029.31;5001606;28;20101;-80
2023/06/03 07:23:35;;;;;;;60.58;57.63;;;;;;;20.47;38.62;102024.91;5005576;28;20041;-80
2023/06/03 07:26:00;;;;;;;58.90;55.90;;;;;;;20.49;38.84;102032.88;5018980;28;20054;-83
2023/06/03 07:28:33;;;;;;;63.25;59.42;;;;;;;20.50;38.99;102021.59;5006655;28;20103;-83
2023/06/03 07:31:04;;;;;;;60.90;57.80;;;;;;;20.54;39.18;102021.88;5014838;28;20092;-83
2023/06/03 07:33:49;;;;;;;62.05;58.85;;;;;;;20.59;39.01;102035.63;5001158;28;20038;-86
2023/06/03 07:36:15;;;;;;;60.30;57.20;;;;;;;20.66;39.30;102027.94;5018879;28;20120;-83
2023/06/03 07:39:02;;;;;;;59.47;56.60;;;;;;;20.71;39.27;102030.66;5020539;28;20026;-85
2023/06/03 07:41:28;;;;;;;62.53;59.00;;;;;;;20.78;39.02;102024.03;5013528;28;20041;-86
2023/06/03 07:43:56;;;;;;;64.10;59.85;;;;;;;20.83;39.07;102030.31;5009390;28;20029;-86
2023/06/03 07:46:30;;;;;;;;;;;;;;;20.90;39.08;102032.78;5016449;28;20375;-85
2023/06/03 07:48:56;;;;;;;58.85;55.95;;;;;;;20.95;39.21;102028.06;5008326;28;19914;-86
2023/06/03 07:51:21;;;;;;;61.95;58.88;;;;;;;21.00;38.72;102031.91;5008816;28;20093;-85
2023/06/03 07:53:46;;;;;;;62.45;59.28;;;;;;;21.08;38.62;102034.06;5007975;28;20046;-85
2023/06/03 07:56:13;;;;;;;65.15;61.92;;;;;;;21.13;38.46;102034.84;5000579;28;20081;-84
2023/06/03 07:58:38;;;;;;;61.88;58.88;;;;;;;21.20;38.23;102026.31;5007171;28;20085;-84
2023/06/03 08:01:05;;;;;;;64.07;61.10;;;;;;;21.26;37.92;102033.41;5003967;28;20113;-84
2023/06/03 08:03:32;;;;;;;60.33;57.17;;;;;;;21.32;37.81;102037.78;5014207;28;20037;-85
2023/06/03 08:05:58;;;;;;;62.38;59.38;;;;;;;21.40;36.96;102033.66;5006980;28;20470;-82
2023/06/03 08:08:31;;;;;;;65.72;62.45;;;;;;;21.47;36.02;102034.16;5016893;28;20069;-82
2023/06/03 08:10:56;;;;;;;62.78;59.67;;;;;;;21.55;35.84;102032.72;5008052;28;20299;-82
2023/06/03 08:13:22;;;;;;;66.95;63.00;;;;;;;21.60;36.10;102025.25;5006581;28;20045;-83
2023/06/03 08:15:48;;;;;;;64.65;61.42;;;;;;;21.68;35.81;102023.84;5010050;28;20044;-82
2023/06/03 08:18:52;;;;;;;65.93;62.85;;;;;;;21.77;36.52;102030.38;5000803;28;20035;-73
2023/06/03 08:21:18;;;;;;;65.88;62.78;;;;;;;21.85;36.14;102028.09;5004560;28;20455;-73
2023/06/03 08:23:44;;;;;;;68.60;65.40;;;;;;;21.90;35.45;102025.28;5004043;28;20042;-70
2023/06/03 08:26:10;;;;;;;67.53;64.28;;;;;;;21.95;35.45;102022.53;5006371;28;20049;-72
2023/06/03 08:28:39;;;;;;;67.97;64.60;;;;;;;22.01;35.05;102030.44;5014952;28;20049;-75
2023/06/03 08:31:05;;;;;;;68.82;65.35;;;;;;;22.05;34.81;102025.19;5008773;28;20050;-73
2023/06/03 08:33:31;;;;;;;69.82;66.43;;;;;;;22.11;34.13;102024.00;5001978;28;20044;-78
2023/06/03 08:35:56;;;;;;;70.57;67.18;;;;;;;22.17;33.64;102025.59;5012932;28;20301;-77
2023/06/03 08:38:22;;;;;;;69.40;66.13;;;;;;;22.23;33.82;102029.16;5013614;28;20033;-75
2023/06/03 08:40:49;;;;;;;70.22;65.28;;;;;;;22.31;33.07;102025.78;5006063;28;20088;-75
2023/06/03 08:43:15;;;;;;;70.53;67.07;;;;;;;22.41;32.63;102028.44;5021886;28;20122;-73
2023/06/03 08:46:22;;;;;;;67.95;64.88;;;;;;;22.53;33.69;102024.44;5012953;28;20032;-70
2023/06/03 08:49:07;;;;;;;68.50;64.97;;;;;;;22.62;32.86;102030.94;5011819;28;20052;-75
2023/06/03 08:51:41;;;;;;;69.85;66.65;;;;;;;22.68;32.25;102021.53;5016976;28;20059;-75
2023/06/03 08:54:13;;;;;;;71.68;68.47;;;;;;;22.72;32.19;102019.81;5002738;28;20073;-71
2023/06/03 08:56:44;;;;;;;76.35;72.50;;;;;;;22.77;31.98;102010.66;5012230;28;20030;-71
2023/06/03 08:59:15;;;;;;;71.65;68.43;;;;;;;22.84;32.01;102017.47;5002627;28;20037;-71
2023/06/03 09:01:42;;;;;;;73.00;69.70;;;;;;;22.89;30.08;102020.16;5009068;28;20037;-72
2023/06/03 09:04:12;;;;;;;73.55;70.25;;;;;;;22.93;30.77;102017.66;5002992;28;20041;-69
2023/06/03 09:06:44;;;;;;;74.65;70.40;;;;;;;22.99;30.54;102018.41;5011694;28;20040;-74
2023/06/03 09:09:11;;;;;;;73.57;70.32;;;;;;;23.05;31.47;102015.28;5006409;28;20038;-78
2023/06/03 09:11:38;;;;;;;74.63;70.90;;;;;;;23.11;30.52;102032.59;5001347;28;20049;-77
2023/06/03 09:14:05;;;;;;;75.47;71.93;;;;;;;23.15;30.21;102017.09;5002963;28;20350;-77
2023/06/03 09:16:34;;;;;;;76.93;73.35;;;;;;;23.21;29.93;102021.44;5016958;28;20042;-75
2023/06/03 09:19:00;;;;;;;76.30;72.50;;;;;;;23.26;30.22;102013.09;5003068;28;20057;-76
2023/06/03 09:21:26;;;;;;;77.03;73.32;;;;;;;23.37;30.61;102018.44;5007234;28;20399;-76
2023/06/03 09:23:52;;;;;;;76.93;72.80;;;;;;;23.47;30.35;102029.31;5007042;28;20045;-74
2023/06/03 09:26:18;;;;;;;82.30;78.53;;;;;;;23.59;29.67;102028.88;5001879;28;20058;-75
2023/06/03 09:28:45;;;;;;;79.35;75.70;;;;;;;23.72;29.21;102017.06;5006910;28;20052;-75
2023/06/03 09:31:10;;;;;;;81.55;77.95;;;;;;;23.84;29.22;102017.44;5008283;28;20398;-77
2023/06/03 09:33:37;;;;;;;82.55;78.70;;;;;;;23.95;28.26;102021.66;5004736;28;20034;-76
2023/06/03 09:36:11;;;;;;;81.97;78.38;;;;;;;24.09;28.43;102020.88;5002366;28;20038;-74
2023/06/03 09:38:54;;;;;;;80.03;76.05;;;;;;;24.22;28.64;102017.34;5003233;28;20057;-77
2023/06/03 09:41:22;;;;;;;84.55;80.75;;;;;;;24.33;28.88;102017.97;5023289;28;20030;-75
2023/06/03 09:44:02;;;;;;;86.72;82.68;;;;;;;24.46;30.45;102022.69;5023929;28;20131;-71
2023/06/03 09:46:31;;;;;;;85.15;81.10;;;;;;;24.54;29.60;102030.25;5008802;28;20575;-83
2023/06/03 09:49:17;;;;;;;85.75;81.55;;;;;;;24.58;28.49;102020.25;4982316;28;20088;-84
2023/06/03 09:51:47;;;;;;;84.72;80.93;;;;;;;24.60;28.45;102023.53;5011805;28;20033;-86
2023/06/03 09:54:17;;;;;;;85.40;81.57;;;;;;;24.64;28.19;102023.72;5016471;28;20121;-86
2023/06/03 09:56:47;;;;;;;87.97;83.78;;;;;;;24.69;27.97;102025.56;4995067;28;20039;-74
2023/06/03 09:59:21;;;;;;;87.30;83.25;;;;;;;24.75;28.43;102018.84;5015459;28;20040;-73
2023/06/03 10:01:48;;;;;;;89.05;85.10;;;;;;;24.83;28.38;102032.72;5007022;28;20095;-73
2023/06/03 10:04:24;;;;;;;86.72;82.90;;;;;;;24.91;28.11;102028.41;5003437;28;20027;-73
2023/06/03 10:07:13;;;;;;;88.22;84.22;;;;;;;24.97;27.12;102032.72;5001006;28;20084;-73
2023/06/03 10:09:44;;;;;;;87.05;82.80;;;;;;;25.02;28.30;102031.78;5000776;28;20101;-71
2023/06/03 10:12:11;;;;;;;90.57;86.57;;;;;;;25.07;27.98;102026.13;5018087;28;20124;-72
2023/06/03 10:14:45;;;;;;;91.70;87.65;;;;;;;25.13;26.99;102026.88;5002439;28;20038;-72
2023/06/03 10:17:12;;;;;;;86.32;82.53;;;;;;;25.18;26.81;102032.31;5021044;28;20091;-75
2023/06/03 10:19:40;;;;;;;90.00;85.93;;;;;;;25.25;27.31;102029.94;5014660;28;20036;-81
2023/06/03 10:22:07;;;;;;;87.70;83.90;;;;;;;25.30;26.99;102034.53;5005894;28;20034;-74
2023/06/03 10:24:42;;;;;;;89.07;85.18;;;;;;;25.36;27.07;102017.50;5018596;28;20289;-76
2023/06/03 10:27:08;;;;;;;87.25;83.18;;;;;;;25.44;25.65;102024.25;5005761;28;20443;-76
2023/06/03 10:29:35;;;;;;;95.25;88.68;;;;;;;25.55;26.77;102019.28;5008226;28;20110;-79
2023/06/03 10:32:02;;;;;;;93.50;89.30;;;;;;;25.65;27.91;102011.56;4999899;28;20080;-79
2023/06/03 10:34:34;;;;;;;95.03;90.72;;;;;;;25.78;26.67;102015.41;5008425;28;20099;-79
2023/06/03 10:37:03;;;;;;;91.90;87.90;;;;;;;25.92;26.21;102015.34;5014787;28;20038;-79
2023/06/03 10:39:29;;;;;;;;;;;;;;;26.03;26.58;102008.41;5021200;28;20041;-80
2023/06/03 10:41:59;;;;;;;89.82;85.78;;;;;;;26.16;27.49;102012.22;5006911;28;20032;-79
2023/06/03 10:44:25;;;;;;;93.85;89.68;;;;;;;26.26;26.75;102006.41;5004704;28;20021;-78
2023/06/03 10:47:05;;;;;;;93.22;88.93;;;;;;;26.39;25.70;102012.97;5000454;28;20227;-80
2023/06/03 10:49:41;;;;;;;99.20;94.80;;;;;;;26.49;24.19;102017.44;5013813;28;20367;-74
2023/06/03 10:52:36;;;;;;;98.68;94.45;;;;;;;26.61;23.96;102011.28;5015232;28;20029;-77
2023/06/03 10:55:28;;;;;;;97.40;93.20;;;;;;;26.70;24.16;102015.72;5018969;28;20026;-77
2023/06/03 10:58:10;;;;;;;102.68;98.18;;;;;;;26.83;23.13;102002.06;5018629;28;20022;-79
2023/06/03 11:00:55;;;;;;;100.93;96.43;;;;;;;26.94;24.62;102014.50;5019782;28;20363;-79
2023/06/03 11:03:21;;;;;;;100.95;96.55;;;;;;;27.04;23.92;102008.63;5016395;28;20435;-78
2023/06/03 11:05:51;;;;;;;104.53;100.00;;;;;;;27.14;25.49;102016.63;5017286;28;20068;-77
2023/06/03 11:09:09;;;;;;;107.40;102.80;;;;;;;27.27;27.96;102008.53;5014765;28;20040;-77
2023/06/03 11:11:44;;;;;;;108.47;103.82;;;;;;;27.36;27.72;102001.81;5009147;28;20036;-77
2023/06/03 11:14:42;;;;;;;107.82;103.15;;;;;;;27.48;29.00;102009.47;5011262;28;20402;-72
2023/06/03 11:17:12;;;;;;;107.63;103.03;;;;;;;27.58;28.21;102005.56;5026817;28;20056;-78